Time;durP1;ratioP1;P1;durP2;ratioP2;P2;SDS_P1;SDS_P2;PMS_P1;PMS_P2;Temp;Humidity;BMP_temperature;BMP_pressure;BME280_temperature;BME280_humidity;BME280_pressure;Samples;Min_cycle;Max_cycle;Signal;HPM_P1;HPM_P2
2024/02/05 00:00:30;;;;;;;0.10;0.10;;;;;;;13.12;62.58;101396.00;7364503;19;20894;-64
2024/02/05 00:02:56;;;;;;;0.10;0.10;;;;;;;12.92;63.18;101366.72;7362930;19;20423;-64
2024/02/05 00:05:22;;;;;;;0.10;0.10;;;;;;;13.05;62.95;101394.41;7363770;19;20394;-64
2024/02/05 00:07:48;;;;;;;0.10;0.10;;;;;;;13.11;62.95;101407.41;7363111;19;20010;-64
2024/02/05 00:10:14;;;;;;;0.10;0.10;;;;;;;13.09;62.97;101403.97;7361539;19;20007;-64
2024/02/05 00:12:39;;;;;;;0.10;0.10;;;;;;;13.09;63.08;101401.34;7365375;19;20473;-64
2024/02/05 00:15:06;;;;;;;0.10;0.10;;;;;;;13.10;63.51;101403.06;7365361;19;20415;-64
2024/02/05 00:17:34;;;;;;;0.10;0.10;;;;;;;13.11;63.63;101399.53;7362741;19;20517;-64
2024/02/05 00:19:59;;;;;;;0.10;0.10;;;;;;;13.09;63.55;101396.09;7361553;19;20037;-64
2024/02/05 00:22:25;;;;;;;0.10;0.10;;;;;;;13.02;63.57;101367.41;7362588;19;20006;-64
2024/02/05 00:24:51;;;;;;;0.10;0.10;;;;;;;13.00;63.57;101359.56;7361500;19;20014;-64
2024/02/05 00:27:16;;;;;;;0.10;0.10;;;;;;;13.09;63.48;101375.09;7369642;19;20717;-64
2024/02/05 00:29:42;;;;;;;0.10;0.10;;;;;;;13.07;63.20;101376.03;7369942;19;20007;-64
2024/02/05 00:32:07;;;;;;;0.10;0.10;;;;;;;13.06;63.55;101372.53;7366114;19;20038;-64
2024/02/05 00:34:33;;;;;;;0.10;0.10;;;;;;;13.02;63.33;101349.91;7362252;19;20478;-64
2024/02/05 00:36:58;;;;;;;0.10;0.10;;;;;;;13.04;63.51;101356.00;7359822;19;20022;-64
2024/02/05 00:39:24;;;;;;;0.10;0.10;;;;;;;13.05;62.90;101357.72;7361974;19;20006;-64
2024/02/05 00:41:49;;;;;;;0.10;0.10;;;;;;;12.99;63.13;101370.97;7360558;19;20025;-64
2024/02/05 00:44:15;;;;;;;0.10;0.10;;;;;;;13.03;63.26;101359.53;7361972;19;20006;-64
2024/02/05 00:46:40;;;;;;;0.10;0.10;;;;;;;12.91;63.11;101338.81;7361552;19;20010;-64
2024/02/05 00:49:06;;;;;;;0.10;0.10;;;;;;;13.01;63.23;101350.81;7366383;19;20050;-64
2024/02/05 00:51:31;;;;;;;0.10;0.10;;;;;;;12.99;63.03;101348.22;7364570;19;20018;-64
2024/02/05 00:53:57;;;;;;;0.10;0.10;;;;;;;12.99;63.04;101352.63;7360854;19;20003;-64
2024/02/05 00:56:23;;;;;;;0.10;0.10;;;;;;;12.97;63.07;101354.38;7362664;19;20033;-64
2024/02/05 00:58:49;;;;;;;0.17;0.17;;;;;;;12.92;63.43;101345.75;7370506;19;20486;-64
2024/02/05 01:01:15;;;;;;;0.10;0.10;;;;;;;12.91;63.75;101341.41;7369023;19;20014;-64
2024/02/05 01:03:42;;;;;;;0.10;0.10;;;;;;;12.80;63.71;101330.31;7369389;19;20495;-64
2024/02/05 01:06:08;;;;;;;0.00;0.00;;;;;;;12.93;63.50;101365.88;7368656;19;20017;-64
2024/02/05 01:08:34;;;;;;;0.10;0.10;;;;;;;12.82;63.36;101346.88;7362222;19;20014;-64
2024/02/05 01:11:00;;;;;;;0.10;0.10;;;;;;;12.92;63.71;101348.38;7361925;19;20015;-64
2024/02/05 01:13:25;;;;;;;0.20;0.20;;;;;;;12.91;63.66;101344.91;7362071;19;20026;-64
2024/02/05 01:15:51;;;;;;;0.10;0.10;;;;;;;12.80;63.84;101309.34;7361563;19;20006;-64
2024/02/05 01:18:16;;;;;;;0.10;0.10;;;;;;;12.79;63.78;101302.38;7360923;19;20006;-64
2024/02/05 01:20:42;;;;;;;0.10;0.10;;;;;;;12.92;63.92;101324.78;7360443;19;20799;-64
2024/02/05 01:23:07;;;;;;;0.10;0.10;;;;;;;12.91;63.67;101313.44;7358226;19;20002;-64
2024/02/05 01:25:33;;;;;;;0.10;0.10;;;;;;;12.76;63.82;101282.34;7359636;19;20010;-64
2024/02/05 01:27:58;;;;;;;0.10;0.10;;;;;;;12.91;63.84;101307.34;7366201;19;20002;-64
2024/02/05 01:30:24;;;;;;;0.10;0.10;;;;;;;12.85;63.42;101304.88;7357628;19;20021;-64
2024/02/05 01:32:49;;;;;;;0.10;0.10;;;;;;;12.89;63.79;101303.91;7361602;19;20018;-64
2024/02/05 01:35:15;;;;;;;0.10;0.10;;;;;;;12.83;63.33;101327.66;7360765;19;20901;-64
2024/02/05 01:37:40;;;;;;;0.10;0.10;;;;;;;12.86;63.85;101303.97;7359633;19;20010;-64
2024/02/05 01:40:09;;;;;;;0.10;0.10;;;;;;;12.85;63.95;101302.25;7360710;19;20011;-64
2024/02/05 01:42:41;;;;;;;0.15;0.15;;;;;;;12.86;63.96;101299.59;7361101;19;20504;-64
2024/02/05 01:45:09;;;;;;;0.05;0.05;;;;;;;12.84;63.58;101311.88;7359987;19;20839;-64
2024/02/05 01:47:36;;;;;;;0.17;0.17;;;;;;;12.82;64.00;101286.56;7359385;19;20014;-64
2024/02/05 01:50:03;;;;;;;0.15;0.15;;;;;;;12.78;63.80;101280.56;7360627;19;20078;-64
2024/02/05 01:52:33;;;;;;;0.10;0.10;;;;;;;12.84;64.05;101285.66;7360977;19;20022;-64
2024/02/05 01:54:59;;;;;;;0.10;0.10;;;;;;;12.71;64.03;101268.47;7366851;19;20478;-64
2024/02/05 01:57:25;;;;;;;0.10;0.10;;;;;;;12.75;63.69;101269.28;7359997;19;20244;-64
2024/02/05 01:59:50;;;;;;;0.13;0.13;;;;;;;12.79;64.03;101265.69;7358172;19;20018;-64
2024/02/05 02:02:16;;;;;;;0.15;0.15;;;;;;;12.77;64.03;101263.09;7360847;19;20580;-64
2024/02/05 02:04:42;;;;;;;0.10;0.10;;;;;;;12.79;63.94;101260.47;7358862;19;20069;-64
2024/02/05 02:07:10;;;;;;;0.10;0.10;;;;;;;12.82;63.86;101268.22;7360238;19;20010;-64
2024/02/05 02:09:36;;;;;;;0.10;0.10;;;;;;;12.80;63.80;101272.66;7366605;19;20573;-64
2024/02/05 02:12:03;;;;;;;0.10;0.10;;;;;;;12.79;64.09;101276.19;7362640;19;20014;-64
2024/02/05 02:14:28;;;;;;;0.10;0.10;;;;;;;12.79;64.06;101284.03;7358881;19;20010;-64
2024/02/05 02:16:54;;;;;;;0.15;0.15;;;;;;;12.62;63.87;101248.59;7360444;19;20022;-64
2024/02/05 02:19:43;;;;;;;0.10;0.10;;;;;;;12.80;64.00;101275.28;7362146;19;20496;-64
2024/02/05 02:22:25;;;;;;;0.10;0.10;;;;;;;12.78;63.98;101270.09;7359159;19;20090;-64
2024/02/05 02:24:51;;;;;;;0.10;0.10;;;;;;;12.75;64.02;101269.28;7357867;19;20025;-64
2024/02/05 02:27:16;;;;;;;0.10;0.10;;;;;;;12.75;64.07;101269.28;7361296;19;20007;-64
2024/02/05 02:29:43;;;;;;;0.10;0.10;;;;;;;12.75;64.47;101258.78;7359287;19;20050;-64
2024/02/05 02:32:21;;;;;;;0.10;0.10;;;;;;;12.73;64.27;101257.06;7361044;19;20070;-64
2024/02/05 02:34:50;;;;;;;0.15;0.15;;;;;;;12.66;64.37;101250.22;7358634;19;20861;-64
2024/02/05 02:37:19;;;;;;;0.10;0.10;;;;;;;12.74;64.26;101260.56;7360287;19;20010;-64
2024/02/05 02:40:09;;;;;;;0.10;0.10;;;;;;;12.75;64.15;101254.41;7369408;19;20527;-64
2024/02/05 02:42:40;;;;;;;0.10;0.10;;;;;;;12.69;64.82;101249.31;7367657;19;20248;-64
2024/02/05 02:45:07;;;;;;;0.10;0.10;;;;;;;12.68;64.49;101237.13;7370221;19;20530;-64
2024/02/05 02:47:33;;;;;;;0.10;0.10;;;;;;;12.48;64.87;101221.00;7371274;19;20021;-64
2024/02/05 02:49:58;;;;;;;0.10;0.10;;;;;;;12.65;64.44;101243.28;7369316;19;20018;-64
2024/02/05 02:52:24;;;;;;;0.10;0.10;;;;;;;12.64;64.73;101231.09;7371971;19;20010;-64
2024/02/05 02:54:49;;;;;;;0.10;0.10;;;;;;;12.63;64.53;101229.38;7365222;19;20013;-64
2024/02/05 02:57:15;;;;;;;0.10;0.10;;;;;;;12.62;64.65;101217.16;7364307;19;20007;-64
2024/02/05 02:59:40;;;;;;;0.10;0.10;;;;;;;12.62;64.47;101222.41;7363721;19;20498;-64
2024/02/05 03:02:06;;;;;;;0.10;0.10;;;;;;;12.62;64.73;101211.03;7372862;19;20371;-64
2024/02/05 03:04:32;;;;;;;0.10;0.10;;;;;;;12.61;64.80;101212.78;7371480;19;20014;-64
2024/02/05 03:06:57;;;;;;;0.10;0.10;;;;;;;12.61;64.72;101210.19;7368958;19;20033;-64
2024/02/05 03:09:23;;;;;;;0.10;0.10;;;;;;;12.60;64.67;101186.63;7365307;19;20015;-64
2024/02/05 03:11:49;;;;;;;0.20;0.20;;;;;;;12.57;64.48;101192.81;7370476;19;19999;-64
2024/02/05 03:14:14;;;;;;;0.10;0.10;;;;;;;12.55;64.57;101178.88;7364822;19;20113;-64
2024/02/05 03:16:40;;;;;;;0.10;0.10;;;;;;;12.57;64.75;101186.69;7362537;19;20014;-64
2024/02/05 03:19:05;;;;;;;0.10;0.10;;;;;;;12.37;64.88;101147.91;7363917;19;20006;-64
2024/02/05 03:21:31;;;;;;;0.10;0.10;;;;;;;12.52;64.85;101171.13;7361718;19;20006;-64
2024/02/05 03:23:56;;;;;;;0.10;0.10;;;;;;;12.21;64.55;101121.16;7364526;19;20025;-64
2024/02/05 03:26:22;;;;;;;0.20;0.20;;;;;;;12.53;64.85;101175.44;7369146;19;20874;-64
2024/02/05 03:28:48;;;;;;;0.00;0.00;;;;;;;12.53;64.93;101175.44;7363824;19;20014;-64
2024/02/05 03:31:13;;;;;;;0.10;0.10;;;;;;;12.51;64.63;101166.75;7361830;19;20037;-64
2024/02/05 03:33:39;;;;;;;0.10;0.10;;;;;;;12.50;64.77;101165.03;7363970;19;20007;-64
2024/02/05 03:36:05;;;;;;;0.10;0.10;;;;;;;12.38;64.98;101155.72;7365374;19;20013;-64
2024/02/05 03:38:30;;;;;;;0.10;0.10;;;;;;;12.49;64.60;101168.56;7362365;19;20010;-64
2024/02/05 03:40:56;;;;;;;0.10;0.10;;;;;;;12.51;64.66;101166.75;7364597;19;20018;-64
2024/02/05 03:43:22;;;;;;;0.10;0.10;;;;;;;12.50;64.71;101167.66;7363642;19;20477;-64
2024/02/05 03:45:47;;;;;;;0.10;0.10;;;;;;;12.51;64.87;101182.47;7364357;19;20011;-64
2024/02/05 03:48:13;;;;;;;0.10;0.10;;;;;;;12.50;64.62;101153.69;7371882;19;20013;-64
2024/02/05 03:50:38;;;;;;;0.10;0.10;;;;;;;12.51;64.88;101160.66;7367528;19;20015;-64
2024/02/05 03:53:04;;;;;;;0.10;0.10;;;;;;;12.36;64.89;101139.16;7363955;19;20047;-64
2024/02/05 03:55:30;;;;;;;0.10;0.10;;;;;;;12.45;65.14;101152.03;7367295;19;20021;-64
2024/02/05 03:58:02;;;;;;;0.10;0.10;;;;;;;12.35;64.77;101123.47;7371818;19;20011;-64
2024/02/05 04:00:27;;;;;;;0.10;0.10;;;;;;;12.45;65.00;101138.09;7370370;19;20010;-64
2024/02/05 04:02:53;;;;;;;0.10;0.10;;;;;;;12.44;64.87;101146.84;7369193;19;20007;-64
2024/02/05 04:05:18;;;;;;;0.10;0.10;;;;;;;12.41;64.77;101136.44;7362116;19;20015;-64
2024/02/05 04:07:44;;;;;;;0.03;0.03;;;;;;;12.40;64.80;101119.84;7363533;19;20014;-64
2024/02/05 04:10:10;;;;;;;0.20;0.20;;;;;;;12.37;65.04;101116.47;7368918;19;20019;-64
2024/02/05 04:12:35;;;;;;;0.10;0.10;;;;;;;12.36;64.94;101114.72;7365612;19;20014;-64
2024/02/05 04:15:01;;;;;;;0.10;0.10;;;;;;;12.34;65.30;101125.25;7361454;19;20031;-65
2024/02/05 04:17:26;;;;;;;0.10;0.10;;;;;;;12.34;65.26;101111.28;7360150;19;20630;-64
2024/02/05 04:19:52;;;;;;;0.10;0.10;;;;;;;12.33;65.20;101115.66;7360447;19;20014;-64
2024/02/05 04:22:18;;;;;;;0.10;0.10;;;;;;;12.33;65.06;101104.34;7363112;19;20006;-64
2024/02/05 04:24:43;;;;;;;0.10;0.10;;;;;;;12.19;65.21;101092.41;7360955;19;20015;-64
2024/02/05 04:27:09;;;;;;;0.10;0.10;;;;;;;12.30;65.31;101104.41;7362839;19;20010;-64
2024/02/05 04:29:35;;;;;;;0.10;0.10;;;;;;;12.28;65.41;101095.72;7363358;19;20025;-64
2024/02/05 04:32:01;;;;;;;0.10;0.10;;;;;;;12.22;65.41;101095.88;7362048;19;20038;-64
2024/02/05 04:34:28;;;;;;;0.10;0.10;;;;;;;12.25;65.52;101095.78;7368536;19;20014;-64
2024/02/05 04:36:53;;;;;;;0.10;0.10;;;;;;;12.16;65.50;101076.75;7361880;19;20014;-64
2024/02/05 04:39:20;;;;;;;0.10;0.10;;;;;;;12.23;65.66;101087.97;7362030;19;20007;-64
2024/02/05 04:41:46;;;;;;;0.10;0.10;;;;;;;12.13;65.25;101074.22;7362437;19;20034;-64
2024/02/05 04:44:11;;;;;;;0.10;0.10;;;;;;;12.22;65.27;101090.63;7362415;19;20010;-64
2024/02/05 04:46:37;;;;;;;0.10;0.10;;;;;;;12.19;65.66;101092.41;7362755;19;20018;-64
2024/02/05 04:49:02;;;;;;;0.10;0.10;;;;;;;12.20;65.30;101093.28;7363637;19;20013;-64
2024/02/05 04:51:28;;;;;;;0.10;0.10;;;;;;;12.19;65.39;101086.31;7361397;19;20013;-64
2024/02/05 04:53:54;;;;;;;0.20;0.20;;;;;;;12.20;65.35;101088.91;7366537;19;20019;-64
2024/02/05 04:56:20;;;;;;;0.10;0.10;;;;;;;12.19;65.35;101081.09;7363956;19;20017;-64
2024/02/05 04:58:45;;;;;;;0.10;0.10;;;;;;;12.05;65.49;101056.97;7362736;19;20042;-64
2024/02/05 05:01:11;;;;;;;0.10;0.10;;;;;;;12.14;65.36;101094.28;7358604;19;20010;-64
2024/02/05 05:03:37;;;;;;;0.10;0.10;;;;;;;12.18;65.61;101075.00;7361329;19;20106;-64
2024/02/05 05:06:02;;;;;;;0.13;0.13;;;;;;;12.18;65.45;101075.00;7361529;19;20113;-64
2024/02/05 05:08:28;;;;;;;0.10;0.10;;;;;;;12.17;65.25;101083.75;7362908;19;20010;-64
2024/02/05 05:10:53;;;;;;;0.10;0.10;;;;;;;12.16;65.20;101071.53;7360945;19;20011;-64
2024/02/05 05:13:19;;;;;;;0.10;0.10;;;;;;;12.18;65.30;101076.75;7361685;19;20666;-64
2024/02/05 05:15:46;;;;;;;0.10;0.10;;;;;;;12.18;65.26;101095.94;7362145;19;20010;-64
2024/02/05 05:18:11;;;;;;;0.10;0.10;;;;;;;12.17;65.23;101083.75;7361528;19;20010;-64
2024/02/05 05:20:38;;;;;;;0.10;0.10;;;;;;;12.17;65.36;101078.50;7360643;19;20017;-64
2024/02/05 05:23:04;;;;;;;0.10;0.10;;;;;;;11.82;65.65;101007.78;7360708;19;21178;-64
2024/02/05 05:25:29;;;;;;;0.13;0.13;;;;;;;12.13;65.27;101061.16;7358316;19;20014;-64
2024/02/05 05:27:55;;;;;;;0.10;0.10;;;;;;;12.16;65.37;101055.81;7362077;19;20020;-64
2024/02/05 05:30:20;;;;;;;0.10;0.10;;;;;;;12.18;65.40;101064.53;7360061;19;20114;-64
2024/02/05 05:32:45;;;;;;;0.10;0.10;;;;;;;12.15;65.61;101051.47;7360978;19;20390;-64
2024/02/05 05:35:11;;;;;;;0.10;0.10;;;;;;;12.15;65.02;101038.41;7359646;19;20041;-64
2024/02/05 05:37:36;;;;;;;0.10;0.10;;;;;;;12.14;64.95;101055.00;7360172;19;20033;-64
2024/02/05 05:40:04;;;;;;;0.10;0.10;;;;;;;12.15;65.46;101043.63;7360703;19;20011;-64
2024/02/05 05:42:30;;;;;;;0.10;0.10;;;;;;;12.15;65.50;101043.63;7360288;19;20011;-64
2024/02/05 05:44:55;;;;;;;0.10;0.10;;;;;;;12.06;65.18;101028.13;7356945;19;20014;-64
2024/02/05 05:47:21;;;;;;;0.20;0.20;;;;;;;12.03;65.21;101017.75;7361417;19;20533;-64
2024/02/05 05:49:46;;;;;;;0.10;0.10;;;;;;;12.14;65.12;101033.22;7359829;19;20006;-64
2024/02/05 05:52:12;;;;;;;0.15;0.15;;;;;;;12.03;64.96;101016.91;7360188;19;20037;-64
2024/02/05 05:54:37;;;;;;;0.10;0.10;;;;;;;12.10;65.00;101008.84;7359765;19;20950;-64
2024/02/05 05:57:05;;;;;;;0.10;0.10;;;;;;;12.13;64.96;101014.03;7360568;19;20009;-64
2024/02/05 05:59:30;;;;;;;0.00;0.00;;;;;;;12.06;65.12;101001.97;7361979;19;20032;-64
2024/02/05 06:01:56;;;;;;;0.10;0.10;;;;;;;12.11;65.08;101020.19;7361337;19;20478;-64
2024/02/05 06:04:21;;;;;;;0.10;0.10;;;;;;;11.97;65.49;100991.75;7358810;19;20025;-64
2024/02/05 06:06:46;;;;;;;0.10;0.10;;;;;;;11.94;65.43;100987.41;7361035;19;20498;-65
2024/02/05 06:09:18;;;;;;;0.10;0.10;;;;;;;12.05;65.51;101000.25;7358545;19;20006;-64
2024/02/05 06:11:45;;;;;;;0.10;0.10;;;;;;;12.04;65.62;100998.53;7361496;19;20010;-64
2024/02/05 06:14:10;;;;;;;0.10;0.10;;;;;;;12.02;65.55;100994.25;7366415;19;20018;-64
2024/02/05 06:16:36;;;;;;;0.10;0.10;;;;;;;11.88;65.61;100960.53;7369362;19;20013;-64
2024/02/05 06:19:01;;;;;;;0.10;0.10;;;;;;;11.94;65.46;100987.41;7367578;19;20006;-64
2024/02/05 06:21:27;;;;;;;0.10;0.10;;;;;;;11.92;65.86;100988.38;7367803;19;20010;-64
2024/02/05 06:23:52;;;;;;;0.10;0.10;;;;;;;11.93;66.05;100984.84;7364952;19;20013;-64
2024/02/05 06:26:17;;;;;;;0.10;0.10;;;;;;;11.93;65.98;100979.63;7364820;19;20007;-64
2024/02/05 06:28:43;;;;;;;0.10;0.10;;;;;;;11.86;65.69;100963.22;7366220;19;20748;-64
2024/02/05 06:31:10;;;;;;;0.10;0.10;;;;;;;11.90;66.20;100977.06;7367156;19;20019;-64
2024/02/05 06:33:35;;;;;;;0.10;0.10;;;;;;;11.87;65.81;100977.16;7370033;19;21086;-64
2024/02/05 06:36:01;;;;;;;0.20;0.20;;;;;;;11.69;66.11;100940.00;7365738;19;20074;-64
2024/02/05 06:38:26;;;;;;;0.10;0.10;;;;;;;11.85;65.88;100981.53;7364496;19;20010;-64
2024/02/05 06:40:52;;;;;;;0.10;0.10;;;;;;;11.83;66.24;100967.66;7369719;19;20019;-64
2024/02/05 06:43:17;;;;;;;0.10;0.10;;;;;;;11.43;66.29;100926.66;7372695;19;20720;-64
2024/02/05 06:45:42;;;;;;;0.10;0.10;;;;;;;11.67;66.22;100947.03;7366620;19;20010;-64
2024/02/05 06:48:08;;;;;;;0.10;0.10;;;;;;;11.81;65.98;100969.38;7365902;19;20019;-64
2024/02/05 06:50:33;;;;;;;0.10;0.10;;;;;;;11.81;66.22;100972.00;7366168;19;20528;-64
2024/02/05 06:52:59;;;;;;;0.10;0.10;;;;;;;11.66;66.03;100949.69;7365567;19;20045;-64
2024/02/05 06:55:25;;;;;;;0.10;0.10;;;;;;;11.70;65.96;100961.78;7366094;19;20805;-65
2024/02/05 06:57:50;;;;;;;0.10;0.10;;;;;;;11.76;66.37;100966.00;7363584;19;20414;-64
2024/02/05 07:00:16;;;;;;;0.20;0.20;;;;;;;11.67;66.22;100954.88;7365560;19;20356;-64
2024/02/05 07:02:41;;;;;;;0.10;0.10;;;;;;;11.73;66.34;100966.09;7366389;19;20011;-64
2024/02/05 07:05:10;;;;;;;0.10;0.10;;;;;;;11.65;66.42;100963.66;7366910;19;20018;-64
2024/02/05 07:07:36;;;;;;;0.10;0.10;;;;;;;11.60;66.71;100950.66;7369819;19;20041;-64
2024/02/05 07:10:05;;;;;;;0.10;0.10;;;;;;;11.69;66.30;100950.47;7366279;19;20035;-64
2024/02/05 07:12:31;;;;;;;0.10;0.10;;;;;;;11.70;66.88;100952.19;7364012;19;20031;-64
2024/02/05 07:14:56;;;;;;;0.10;0.10;;;;;;;11.54;66.43;100924.66;7365563;19;20023;-64
2024/02/05 07:17:32;;;;;;;0.10;0.10;;;;;;;11.72;66.57;100944.31;7364185;19;20010;-64
2024/02/05 07:20:01;;;;;;;0.10;0.10;;;;;;;11.69;66.61;100945.22;7365080;19;20525;-64
2024/02/05 07:22:26;;;;;;;0.10;0.10;;;;;;;11.66;66.62;100936.63;7365048;19;20010;-64
2024/02/05 07:24:52;;;;;;;0.10;0.10;;;;;;;11.60;66.84;100923.66;7360969;19;20754;-64
2024/02/05 07:27:17;;;;;;;0.10;0.10;;;;;;;11.70;66.88;100946.09;7371464;19;20398;-64
2024/02/05 07:29:43;;;;;;;0.15;0.15;;;;;;;11.67;67.37;100940.94;7362901;19;20344;-64
2024/02/05 07:32:08;;;;;;;0.10;0.10;;;;;;;11.69;67.28;100937.38;7363539;19;20035;-64
2024/02/05 07:34:34;;;;;;;0.10;0.10;;;;;;;11.64;67.10;100926.16;7365248;19;20760;-64
2024/02/05 07:36:59;;;;;;;0.10;0.10;;;;;;;11.69;67.09;100919.06;7363313;19;20018;-64
2024/02/05 07:39:26;;;;;;;0.10;0.10;;;;;;;11.35;67.42;100860.59;7364933;19;20476;-64
2024/02/05 07:41:52;;;;;;;0.03;0.03;;;;;;;11.67;67.17;100899.94;7362905;19;19999;-64
2024/02/05 07:44:18;;;;;;;0.10;0.10;;;;;;;11.69;67.38;100911.22;7363509;19;20581;-64
2024/02/05 07:46:43;;;;;;;0.10;0.10;;;;;;;11.68;67.49;100904.28;7366884;19;20006;-64
2024/02/05 07:49:09;;;;;;;0.00;0.00;;;;;;;11.65;67.68;100912.19;7367666;19;20050;-64
2024/02/05 07:51:42;;;;;;;0.10;0.10;;;;;;;11.66;66.96;100908.69;7365455;19;20471;-64
2024/02/05 07:54:08;;;;;;;0.10;0.10;;;;;;;11.62;67.85;100907.06;7365264;19;20018;-64
2024/02/05 07:56:33;;;;;;;0.10;0.10;;;;;;;11.60;67.71;100906.22;7370778;19;20504;-64
2024/02/05 07:58:59;;;;;;;0.10;0.10;;;;;;;11.59;67.64;100904.50;7361348;19;20017;-64
2024/02/05 08:01:24;;;;;;;0.10;0.10;;;;;;;11.45;67.93;100872.56;7362535;19;20006;-64
2024/02/05 08:03:53;;;;;;;0.10;0.10;;;;;;;11.56;67.91;100901.97;7364896;19;20760;-64
2024/02/05 08:06:19;;;;;;;0.00;0.00;;;;;;;11.55;68.17;100899.38;7364233;19;20516;-64
2024/02/05 08:08:44;;;;;;;0.10;0.10;;;;;;;11.55;67.91;100895.00;7363242;19;20010;-64
2024/02/05 08:11:10;;;;;;;0.10;0.10;;;;;;;11.35;68.54;100881.53;7367805;19;20025;-64
2024/02/05 08:13:35;;;;;;;0.20;0.20;;;;;;;11.32;68.52;100837.16;7363559;19;20023;-64
2024/02/05 08:16:02;;;;;;;0.10;0.10;;;;;;;11.54;68.13;100885.44;7362788;19;20015;-64
2024/02/05 08:18:27;;;;;;;0.10;0.10;;;;;;;11.51;69.04;100887.28;7362191;19;20978;-64
2024/02/05 08:20:52;;;;;;;0.10;0.10;;;;;;;11.54;68.54;100893.28;7361193;19;20010;-64
2024/02/05 08:23:18;;;;;;;0.10;0.10;;;;;;;11.55;68.58;100889.75;7362504;19;20010;-64
2024/02/05 08:25:44;;;;;;;0.10;0.10;;;;;;;11.54;68.99;100885.44;7362365;19;20616;-64
2024/02/05 08:28:09;;;;;;;0.10;0.10;;;;;;;11.58;68.53;100863.53;7362821;19;20062;-65
2024/02/05 08:30:35;;;;;;;0.10;0.10;;;;;;;11.52;68.96;100865.47;7358930;19;20090;-64
2024/02/05 08:33:00;;;;;;;0.10;0.10;;;;;;;11.62;69.15;100854.75;7360226;19;20018;-64
2024/02/05 08:35:26;;;;;;;0.10;0.10;;;;;;;11.65;68.87;100864.25;7358721;19;20429;-64
2024/02/05 08:37:53;;;;;;;0.10;0.10;;;;;;;11.54;69.05;100835.75;7361502;19;20007;-64
2024/02/05 08:40:18;;;;;;;0.10;0.10;;;;;;;11.69;69.13;100866.75;7362972;19;20101;-64
2024/02/05 08:42:43;;;;;;;0.10;0.10;;;;;;;11.59;68.67;100841.72;7361479;19;20505;-64
2024/02/05 08:45:09;;;;;;;0.10;0.10;;;;;;;11.76;69.10;100850.91;7359351;19;20022;-64
2024/02/05 08:47:35;;;;;;;0.10;0.10;;;;;;;11.79;68.68;100848.22;7360497;19;20006;-64
2024/02/05 08:50:00;;;;;;;0.10;0.10;;;;;;;11.80;68.65;100860.41;7362213;19;20017;-64
2024/02/05 08:52:25;;;;;;;0.10;0.10;;;;;;;11.85;68.99;100858.56;7360085;19;20034;-64
2024/02/05 08:54:51;;;;;;;0.10;0.10;;;;;;;11.87;68.86;100848.94;7360245;19;20031;-64
2024/02/05 08:57:16;;;;;;;0.10;0.10;;;;;;;11.90;68.82;100835.75;7360707;19;20014;-64
2024/02/05 08:59:42;;;;;;;0.10;0.10;;;;;;;11.94;68.46;100834.78;7365756;19;20010;-64
2024/02/05 09:02:07;;;;;;;0.10;0.10;;;;;;;11.95;68.60;100831.25;7361399;19;20014;-64
2024/02/05 09:04:33;;;;;;;0.20;0.20;;;;;;;11.98;68.64;100825.09;7359317;19;20104;-64
2024/02/05 09:06:58;;;;;;;0.10;0.10;;;;;;;12.02;68.87;100821.50;7361335;19;20340;-64
2024/02/05 09:09:23;;;;;;;0.10;0.10;;;;;;;11.98;68.43;100817.25;7361830;19;20033;-64
2024/02/05 09:11:49;;;;;;;0.10;0.10;;;;;;;12.07;68.31;100817.84;7358547;19;20015;-64
2024/02/05 09:14:14;;;;;;;0.10;0.10;;;;;;;12.10;68.60;100809.91;7360859;19;19998;-64
2024/02/05 09:16:40;;;;;;;0.13;0.13;;;;;;;12.16;68.07;100812.34;7360771;19;20006;-64
2024/02/05 09:19:05;;;;;;;0.20;0.20;;;;;;;12.23;68.34;100806.97;7358577;19;20006;-64
2024/02/05 09:21:30;;;;;;;0.20;0.20;;;;;;;12.29;68.07;100815.50;7359536;19;20019;-64
2024/02/05 09:23:56;;;;;;;0.10;0.10;;;;;;;12.36;67.72;100817.03;7360937;19;20487;-64
2024/02/05 09:26:21;;;;;;;0.10;0.10;;;;;;;12.31;67.55;100791.88;7363307;19;20106;-64
2024/02/05 09:28:47;;;;;;;0.10;0.10;;;;;;;12.44;67.36;100808.97;7359821;19;20025;-64
2024/02/05 09:31:12;;;;;;;0.10;0.10;;;;;;;12.44;67.23;100804.59;7359495;19;20019;-64
2024/02/05 09:33:38;;;;;;;0.10;0.10;;;;;;;12.52;67.34;100804.38;7361245;19;20014;-64
2024/02/05 09:36:04;;;;;;;0.10;0.10;;;;;;;12.54;67.37;100805.19;7360115;19;20494;-64
2024/02/05 09:38:30;;;;;;;0.10;0.10;;;;;;;12.54;66.79;100801.72;7360024;19;20014;-64
2024/02/05 09:41:05;;;;;;;0.10;0.10;;;;;;;12.60;67.30;100784.03;7361689;19;20451;-64
2024/02/05 09:43:32;;;;;;;0.10;0.10;;;;;;;12.58;67.01;100772.75;7359646;19;20033;-64
2024/02/05 09:46:04;;;;;;;0.10;0.10;;;;;;;12.59;66.95;100766.63;7361279;19;20394;-64
2024/02/05 09:48:34;;;;;;;0.10;0.10;;;;;;;12.62;66.94;100787.50;7372331;19;20457;-64
2024/02/05 09:51:03;;;;;;;0.10;0.10;;;;;;;12.62;66.45;100784.88;7373899;19;20006;-64
2024/02/05 09:53:29;;;;;;;0.10;0.10;;;;;;;12.61;66.98;100790.13;7374891;19;20006;-64
2024/02/05 09:55:56;;;;;;;0.10;0.10;;;;;;;12.62;66.97;100791.84;7373601;19;20088;-64
2024/02/05 09:58:21;;;;;;;0.10;0.10;;;;;;;12.61;66.91;100780.50;7373333;19;20440;-64
2024/02/05 10:00:47;;;;;;;0.10;0.10;;;;;;;12.56;66.87;100763.22;7372644;19;20481;-64
2024/02/05 10:03:15;;;;;;;0.10;0.10;;;;;;;12.57;66.66;100770.16;7374153;19;20014;-64
2024/02/05 10:05:41;;;;;;;0.10;0.10;;;;;;;12.64;66.74;100771.72;7373089;19;20541;-64
2024/02/05 10:08:07;;;;;;;0.20;0.20;;;;;;;12.64;66.46;100774.34;7374297;19;20010;-64
2024/02/05 10:10:35;;;;;;;0.10;0.10;;;;;;;12.64;66.72;100779.56;7373459;19;20032;-64
2024/02/05 10:13:01;;;;;;;0.10;0.10;;;;;;;12.65;66.41;100781.28;7374051;19;20015;-64
2024/02/05 10:15:27;;;;;;;0.10;0.10;;;;;;;12.64;66.64;100777.81;7373864;19;20037;-65
2024/02/05 10:17:52;;;;;;;0.10;0.10;;;;;;;12.66;66.51;100772.50;7376068;19;20812;-64
2024/02/05 10:20:28;;;;;;;0.10;0.10;;;;;;;12.63;66.69;100776.09;7374530;19;20348;-64
2024/02/05 10:22:54;;;;;;;0.13;0.13;;;;;;;12.67;66.80;100766.38;7375405;19;20014;-64
2024/02/05 10:25:19;;;;;;;0.10;0.10;;;;;;;12.66;66.76;100762.88;7371643;19;20033;-64
2024/02/05 10:27:45;;;;;;;0.10;0.10;;;;;;;12.57;66.71;100760.56;7373802;19;20018;-64
2024/02/05 10:30:10;;;;;;;0.10;0.10;;;;;;;12.67;66.50;100754.16;7378676;19;20027;-64
2024/02/05 10:32:36;;;;;;;0.10;0.10;;;;;;;12.69;66.73;100773.28;7383368;19;20018;-64
2024/02/05 10:35:02;;;;;;;0.10;0.10;;;;;;;12.67;66.44;100759.41;7379110;19;20573;-64
2024/02/05 10:37:29;;;;;;;0.00;0.00;;;;;;;12.72;66.66;100752.25;7375792;19;20007;-64
2024/02/05 10:40:10;;;;;;;0.10;0.10;;;;;;;12.75;66.85;100750.44;7376111;19;20007;-64
2024/02/05 10:42:35;;;;;;;0.10;0.10;;;;;;;12.57;66.87;100734.38;7377011;19;20352;-64
2024/02/05 10:45:04;;;;;;;0.10;0.10;;;;;;;12.63;66.90;100747.28;7375207;19;20010;-64
2024/02/05 10:47:29;;;;;;;0.10;0.10;;;;;;;12.78;66.51;100758.22;7378357;19;20011;-64
2024/02/05 10:49:57;;;;;;;0.10;0.10;;;;;;;12.76;66.61;100749.50;7378547;19;20003;-64
2024/02/05 10:52:23;;;;;;;0.10;0.10;;;;;;;12.80;66.50;100772.97;7386160;19;20018;-64
2024/02/05 10:54:50;;;;;;;0.10;0.10;;;;;;;12.71;66.88;100723.44;7378813;19;20003;-64
2024/02/05 10:57:21;;;;;;;0.17;0.17;;;;;;;12.84;66.90;100758.00;7378057;19;20510;-64
2024/02/05 10:59:46;;;;;;;0.10;0.10;;;;;;;12.83;66.87;100758.91;7366937;19;20006;-64
2024/02/05 11:02:35;;;;;;;0.10;0.10;;;;;;;12.86;66.92;100758.81;7370898;19;21209;-64
2024/02/05 11:05:01;;;;;;;0.10;0.10;;;;;;;12.78;66.51;100760.81;7367480;19;19998;-64
2024/02/05 11:07:31;;;;;;;0.10;0.10;;;;;;;12.84;66.47;100760.63;7377804;19;20011;-64
2024/02/05 11:10:01;;;;;;;0.10;0.10;;;;;;;12.84;66.47;100764.09;7378177;19;20090;-64
2024/02/05 11:12:31;;;;;;;0.10;0.10;;;;;;;12.84;66.70;100761.47;7373211;19;20015;-64
2024/02/05 11:15:04;;;;;;;0.10;0.10;;;;;;;12.79;66.63;100736.34;7369424;19;20087;-64
2024/02/05 11:17:33;;;;;;;0.20;0.20;;;;;;;12.80;66.33;100727.56;7367592;19;20025;-64
2024/02/05 11:19:59;;;;;;;0.10;0.10;;;;;;;12.85;66.65;100747.47;7368065;19;20066;-64